Time;durP1;ratioP1;P1;durP2;ratioP2;P2;SDS_P1;SDS_P2;PMS_P1;PMS_P2;Temp;Humidity;BMP_temperature;BMP_pressure;BME280_temperature;BME280_humidity;BME280_pressure;Samples;Min_cycle;Max_cycle;Signal;HPM_P1;HPM_P2
2023/02/09 00:01:13;;;;;;;26.08;15.77;;;;;;;;;;4997751;28;20338;-78
2023/02/09 00:03:40;;;;;;;28.10;16.25;;;;;;;;;;5030307;28;20045;-78
2023/02/09 00:06:08;;;;;;;27.10;14.85;;;;;;;;;;5000516;28;20053;-78
2023/02/09 00:08:35;;;;;;;25.90;15.25;;;;;;;;;;5017353;28;20058;-78
2023/02/09 00:11:12;;;;;;;25.45;14.98;;;;;;;;;;5017610;28;20053;-78
2023/02/09 00:13:38;;;;;;;27.98;15.18;;;;;;;;;;5018028;28;20057;-78
2023/02/09 00:16:05;;;;;;;27.13;14.63;;;;;;;;;;5033488;28;20062;-78
2023/02/09 00:18:32;;;;;;;26.17;15.05;;;;;;;;;;5033156;28;20531;-78
2023/02/09 00:21:10;;;;;;;28.88;15.35;;;;;;;;;;5049969;28;20061;-78
2023/02/09 00:23:39;;;;;;;27.45;14.73;;;;;;;;;;5002169;28;20057;-78
2023/02/09 00:26:08;;;;;;;32.25;16.27;;;;;;;;;;5000915;28;20533;-78
2023/02/09 00:28:35;;;;;;;26.95;15.02;;;;;;;;;;5016957;28;20089;-78
2023/02/09 00:31:07;;;;;;;26.35;15.57;;;;;;;;;;5000726;28;20524;-78
2023/02/09 00:33:34;;;;;;;30.60;15.13;;;;;;;;;;5001026;28;20049;-78
2023/02/09 00:36:11;;;;;;;29.25;16.13;;;;;;;;;;5016785;28;20099;-78
2023/02/09 00:38:38;;;;;;;27.05;15.13;;;;;;;;;;5000680;28;20418;-78
2023/02/09 00:41:05;;;;;;;29.42;16.45;;;;;;;;;;5000676;28;20425;-78
2023/02/09 00:43:32;;;;;;;23.42;14.90;;;;;;;;;;5016649;28;20057;-78
2023/02/09 00:45:59;;;;;;;28.85;15.55;;;;;;;;;;5032959;28;20060;-78
2023/02/09 00:48:26;;;;;;;27.58;15.48;;;;;;;;;;5000528;28;20099;-78
2023/02/09 00:50:53;;;;;;;26.50;15.45;;;;;;;;;;5033158;28;20053;-78
2023/02/09 00:53:20;;;;;;;27.25;15.93;;;;;;;;;;5016633;28;20053;-78
2023/02/09 00:55:47;;;;;;;24.73;15.75;;;;;;;;;;5016710;28;20054;-78
2023/02/09 00:58:14;;;;;;;26.90;14.88;;;;;;;;;;5032607;28;20049;-78
2023/02/09 01:00:41;;;;;;;27.75;15.50;;;;;;;;;;5016401;28;20053;-78
2023/02/09 01:03:08;;;;;;;26.88;15.80;;;;;;;;;;5016432;28;20054;-78
2023/02/09 01:05:39;;;;;;;27.23;16.38;;;;;;;;;;5016358;28;20049;-78
2023/02/09 01:08:06;;;;;;;27.05;15.82;;;;;;;;;;4999979;28;20065;-78
2023/02/09 01:10:33;;;;;;;28.77;16.15;;;;;;;;;;5016196;28;20059;-78
2023/02/09 01:12:59;;;;;;;29.88;16.35;;;;;;;;;;5016287;28;20071;-78
2023/02/09 01:15:26;;;;;;;27.75;15.82;;;;;;;;;;4999812;28;20518;-78
2023/02/09 01:17:53;;;;;;;29.95;16.95;;;;;;;;;;5031558;28;20644;-78
2023/02/09 01:20:19;;;;;;;27.10;15.90;;;;;;;;;;5032489;28;20059;-78
2023/02/09 01:22:46;;;;;;;28.65;16.67;;;;;;;;;;5016185;28;20056;-78
2023/02/09 01:25:13;;;;;;;25.83;15.82;;;;;;;;;;5032138;28;20054;-78
2023/02/09 01:27:41;;;;;;;28.67;15.85;;;;;;;;;;5031885;28;20494;-78
2023/02/09 01:30:08;;;;;;;27.95;15.85;;;;;;;;;;5015881;28;20053;-78
2023/02/09 01:32:35;;;;;;;28.25;15.40;;;;;;;;;;4999713;28;20053;-78
2023/02/09 01:35:03;;;;;;;27.90;15.88;;;;;;;;;;4999601;28;20060;-78
2023/02/09 01:37:29;;;;;;;27.42;15.48;;;;;;;;;;5015564;28;20453;-78
2023/02/09 01:39:56;;;;;;;31.00;15.52;;;;;;;;;;5015838;28;20057;-78
2023/02/09 01:42:22;;;;;;;27.83;16.70;;;;;;;;;;5031885;28;20536;-78
2023/02/09 01:45:20;;;;;;;24.30;14.73;;;;;;;;;;5032063;28;20057;-78
2023/02/09 01:48:03;;;;;;;25.33;15.13;;;;;;;;;;5018092;28;20057;-78
2023/02/09 01:50:33;;;;;;;28.00;15.18;;;;;;;;;;5000428;28;20057;-78
2023/02/09 01:53:00;;;;;;;29.55;16.63;;;;;;;;;;5015735;28;20049;-78
2023/02/09 01:55:27;;;;;;;30.38;17.20;;;;;;;;;;5015339;28;20516;-78
2023/02/09 01:58:11;;;;;;;27.98;16.33;;;;;;;;;;5015578;28;20417;-78
2023/02/09 02:00:37;;;;;;;26.52;15.82;;;;;;;;;;5000286;28;20517;-78
2023/02/09 02:03:06;;;;;;;27.83;15.98;;;;;;;;;;5015494;28;20076;-78
2023/02/09 02:05:34;;;;;;;29.45;15.70;;;;;;;;;;5015373;28;20084;-78
2023/02/09 02:08:12;;;;;;;28.27;15.73;;;;;;;;;;5015099;28;20057;-78
2023/02/09 02:10:38;;;;;;;31.25;17.20;;;;;;;;;;5015436;28;20490;-78
2023/02/09 02:13:05;;;;;;;26.48;15.15;;;;;;;;;;5015285;28;20054;-78
2023/02/09 02:15:57;;;;;;;27.77;16.38;;;;;;;;;;5015247;28;20060;-78
2023/02/09 02:18:52;;;;;;;32.45;17.08;;;;;;;;;;5014956;28;20132;-78
2023/02/09 02:21:52;;;;;;;31.08;17.15;;;;;;;;;;5031455;28;20521;-78
2023/02/09 02:24:28;;;;;;;31.65;17.73;;;;;;;;;;5032669;28;20064;-78
2023/02/09 02:27:02;;;;;;;32.72;17.38;;;;;;;;;;5031046;28;20501;-78
2023/02/09 02:29:35;;;;;;;30.55;16.67;;;;;;;;;;5013692;28;20072;-78
2023/02/09 02:32:28;;;;;;;30.85;17.88;;;;;;;;;;5014808;28;20064;-78
2023/02/09 02:35:06;;;;;;;24.83;13.05;;;;;;;;;;5017783;28;20049;-77
2023/02/09 02:37:42;;;;;;;34.63;16.85;;;;;;;;;;4998657;28;20502;-78
2023/02/09 02:40:30;;;;;;;29.42;16.83;;;;;;;;;;4999271;28;20058;-78
2023/02/09 02:43:03;;;;;;;29.63;16.52;;;;;;;;;;5014454;28;20049;-78
2023/02/09 02:45:41;;;;;;;29.85;17.27;;;;;;;;;;5014639;28;20151;-78
2023/02/09 02:48:20;;;;;;;28.25;16.45;;;;;;;;;;5019109;28;20041;-78
2023/02/09 02:51:06;;;;;;;34.03;17.88;;;;;;;;;;5016237;28;20056;-78
2023/02/09 02:53:35;;;;;;;31.80;17.67;;;;;;;;;;5031061;28;20084;-78
2023/02/09 02:56:07;;;;;;;31.33;17.92;;;;;;;;;;4998844;28;20049;-78
2023/02/09 02:58:34;;;;;;;31.02;17.70;;;;;;;;;;5014709;28;20057;-78
2023/02/09 03:01:01;;;;;;;32.60;17.17;;;;;;;;;;5014438;28;20056;-78
2023/02/09 03:03:32;;;;;;;29.90;16.92;;;;;;;;;;5014564;28;20140;-78
2023/02/09 03:06:01;;;;;;;31.48;16.73;;;;;;;;;;4998345;28;20085;-78
2023/02/09 03:08:27;;;;;;;32.35;18.30;;;;;;;;;;5014132;28;20060;-78
2023/02/09 03:10:54;;;;;;;31.20;18.45;;;;;;;;;;5030926;28;20054;-78
2023/02/09 03:13:44;;;;;;;29.70;18.38;;;;;;;;;;5030500;28;20490;-78
2023/02/09 03:16:28;;;;;;;30.38;18.00;;;;;;;;;;5016981;28;20060;-78
2023/02/09 03:19:04;;;;;;;33.47;17.63;;;;;;;;;;5015368;28;20403;-78
2023/02/09 03:21:38;;;;;;;29.58;17.70;;;;;;;;;;5030663;28;20061;-78
2023/02/09 03:24:33;;;;;;;29.30;16.83;;;;;;;;;;5014853;28;20085;-77
2023/02/09 03:27:01;;;;;;;31.40;16.88;;;;;;;;;;5016977;28;20051;-78
2023/02/09 03:29:28;;;;;;;35.60;18.48;;;;;;;;;;5014144;28;20057;-78
2023/02/09 03:31:55;;;;;;;31.15;16.85;;;;;;;;;;5030502;28;20394;-78
2023/02/09 03:34:22;;;;;;;28.58;17.92;;;;;;;;;;5013825;28;20046;-78
2023/02/09 03:36:52;;;;;;;29.50;17.40;;;;;;;;;;5030370;28;20079;-78
2023/02/09 03:39:19;;;;;;;28.75;17.27;;;;;;;;;;5014607;28;20057;-78
2023/02/09 03:41:46;;;;;;;29.08;16.83;;;;;;;;;;5018041;28;20319;-78
2023/02/09 03:44:25;;;;;;;31.17;18.20;;;;;;;;;;5017762;28;20045;-78
2023/02/09 03:47:03;;;;;;;28.65;16.90;;;;;;;;;;5019115;28;20060;-78
2023/02/09 03:49:38;;;;;;;27.08;16.35;;;;;;;;;;5002083;28;20064;-78
2023/02/09 03:52:07;;;;;;;31.38;17.13;;;;;;;;;;5002307;28;20469;-78
2023/02/09 03:54:34;;;;;;;28.70;17.40;;;;;;;;;;5017911;28;20053;-78
2023/02/09 03:57:01;;;;;;;29.95;15.68;;;;;;;;;;5033859;28;20053;-78
2023/02/09 03:59:28;;;;;;;27.65;16.63;;;;;;;;;;5034067;28;20061;-78
2023/02/09 04:01:56;;;;;;;28.27;16.20;;;;;;;;;;5017899;28;20414;-78
2023/02/09 04:04:24;;;;;;;29.13;15.10;;;;;;;;;;5001190;28;20136;-78
2023/02/09 04:06:51;;;;;;;26.48;15.50;;;;;;;;;;5017473;28;20050;-78
2023/02/09 04:09:18;;;;;;;29.40;16.73;;;;;;;;;;5017532;28;20498;-78
2023/02/09 04:11:46;;;;;;;30.02;16.92;;;;;;;;;;5017423;28;20049;-78
2023/02/09 04:14:13;;;;;;;28.20;16.45;;;;;;;;;;5001367;28;20057;-78
2023/02/09 04:16:39;;;;;;;27.88;17.05;;;;;;;;;;5001275;28;20053;-78
2023/02/09 04:19:08;;;;;;;27.83;15.75;;;;;;;;;;5033649;28;20064;-78
2023/02/09 04:21:36;;;;;;;27.67;16.65;;;;;;;;;;5001417;28;20049;-78
2023/02/09 04:24:03;;;;;;;26.45;15.52;;;;;;;;;;5017340;28;20049;-78
2023/02/09 04:26:30;;;;;;;26.88;16.05;;;;;;;;;;5016911;28;20064;-78
2023/02/09 04:28:57;;;;;;;25.77;15.35;;;;;;;;;;5050004;28;20049;-78
2023/02/09 04:31:23;;;;;;;24.48;15.50;;;;;;;;;;5017391;28;20057;-78
2023/02/09 04:33:50;;;;;;;26.90;14.68;;;;;;;;;;5017133;28;20111;-78
2023/02/09 04:36:17;;;;;;;29.65;15.40;;;;;;;;;;5033484;28;20613;-78
2023/02/09 04:38:44;;;;;;;23.55;15.57;;;;;;;;;;5016597;28;20429;-78
2023/02/09 04:41:10;;;;;;;27.27;16.08;;;;;;;;;;5033067;28;20144;-78
2023/02/09 04:43:37;;;;;;;25.40;15.05;;;;;;;;;;5000869;28;20536;-78
2023/02/09 04:46:04;;;;;;;25.52;15.05;;;;;;;;;;5017023;28;20076;-78
2023/02/09 04:48:30;;;;;;;26.92;15.27;;;;;;;;;;5016583;28;20406;-78
2023/02/09 04:50:57;;;;;;;24.90;15.80;;;;;;;;;;5032640;28;20143;-78
2023/02/09 04:53:24;;;;;;;28.40;16.20;;;;;;;;;;5032803;28;20473;-78
2023/02/09 04:55:51;;;;;;;28.95;16.63;;;;;;;;;;5032912;28;20057;-78
2023/02/09 05:01:05;;;;;;;28.20;16.33;;;;;;;;;;5033319;28;20063;-78
2023/02/09 05:03:31;;;;;;;23.85;15.18;;;;;;;;;;5016403;28;20053;-78
2023/02/09 05:06:00;;;;;;;29.73;17.05;;;;;;;;;;5032552;28;20052;-78
2023/02/09 05:08:27;;;;;;;27.50;15.02;;;;;;;;;;5000578;28;20445;-78
2023/02/09 05:10:55;;;;;;;27.33;15.27;;;;;;;;;;5032505;28;20059;-78
2023/02/09 05:13:22;;;;;;;26.33;15.50;;;;;;;;;;5016123;28;20528;-78
2023/02/09 05:15:48;;;;;;;22.27;14.15;;;;;;;;;;5016108;28;20053;-78
2023/02/09 05:18:15;;;;;;;25.80;14.70;;;;;;;;;;5015930;28;20069;-78
2023/02/09 05:20:43;;;;;;;25.75;14.40;;;;;;;;;;5016003;28;20053;-78
2023/02/09 05:23:10;;;;;;;28.58;15.50;;;;;;;;;;5000310;28;20057;-78
2023/02/09 05:25:37;;;;;;;26.05;16.08;;;;;;;;;;5015811;28;20050;-79
2023/02/09 05:28:04;;;;;;;25.15;14.75;;;;;;;;;;5015793;28;20054;-78
2023/02/09 05:30:30;;;;;;;27.98;15.25;;;;;;;;;;5016062;28;20076;-78
2023/02/09 05:32:57;;;;;;;25.90;16.13;;;;;;;;;;5032089;28;20053;-78
2023/02/09 05:35:24;;;;;;;27.30;15.40;;;;;;;;;;5016595;28;20061;-78
2023/02/09 05:37:51;;;;;;;29.40;16.77;;;;;;;;;;5015921;28;20509;-78
2023/02/09 05:40:17;;;;;;;30.20;16.55;;;;;;;;;;5015628;28;20057;-78
2023/02/09 05:42:44;;;;;;;26.98;15.57;;;;;;;;;;5031668;28;20136;-78
2023/02/09 05:45:11;;;;;;;29.83;16.02;;;;;;;;;;5015542;28;20045;-78
2023/02/09 05:47:38;;;;;;;24.95;15.27;;;;;;;;;;5031517;28;20561;-78
2023/02/09 05:50:04;;;;;;;27.35;16.13;;;;;;;;;;5015443;28;20050;-78
2023/02/09 05:52:31;;;;;;;28.92;16.48;;;;;;;;;;5031672;28;20053;-78
2023/02/09 05:54:58;;;;;;;24.67;15.35;;;;;;;;;;5015355;28;20049;-78
2023/02/09 05:57:25;;;;;;;41.72;22.45;;;;;;;;;;5031624;28;20490;-77
2023/02/09 05:59:51;;;;;;;40.05;22.67;;;;;;;;;;5015315;28;20054;-78
2023/02/09 06:02:18;;;;;;;37.00;20.50;;;;;;;;;;5031415;28;20056;-78
2023/02/09 06:04:46;;;;;;;30.73;17.67;;;;;;;;;;5031813;28;20057;-78
2023/02/09 06:07:12;;;;;;;32.95;16.88;;;;;;;;;;5031451;28;20055;-78
2023/02/09 06:09:39;;;;;;;28.45;15.73;;;;;;;;;;4999144;28;20061;-78
2023/02/09 06:12:06;;;;;;;25.63;15.60;;;;;;;;;;5031467;28;20050;-78
2023/02/09 06:14:32;;;;;;;27.83;16.65;;;;;;;;;;5015190;28;20060;-78
2023/02/09 06:16:59;;;;;;;24.60;13.90;;;;;;;;;;5031434;28;20059;-78
2023/02/09 06:19:26;;;;;;;26.33;15.13;;;;;;;;;;5015380;28;20312;-78
2023/02/09 06:21:52;;;;;;;26.60;15.55;;;;;;;;;;5031727;28;20053;-78
2023/02/09 06:24:19;;;;;;;23.90;13.95;;;;;;;;;;5031350;28;20409;-78
2023/02/09 06:26:46;;;;;;;28.20;14.45;;;;;;;;;;5047558;28;20493;-78
2023/02/09 06:29:13;;;;;;;23.85;14.63;;;;;;;;;;5031172;28;20140;-78
2023/02/09 06:31:40;;;;;;;25.70;14.18;;;;;;;;;;4998523;28;20119;-78
2023/02/09 06:34:08;;;;;;;29.08;14.88;;;;;;;;;;5014871;28;20052;-78
2023/02/09 06:36:35;;;;;;;29.45;15.57;;;;;;;;;;5015121;28;20049;-78
2023/02/09 06:39:06;;;;;;;32.35;16.10;;;;;;;;;;5022538;28;20108;-81
2023/02/09 06:41:33;;;;;;;25.73;15.68;;;;;;;;;;5005762;28;20058;-81
2023/02/09 06:44:00;;;;;;;27.08;14.73;;;;;;;;;;5033691;28;20140;-80
2023/02/09 06:46:27;;;;;;;26.80;14.90;;;;;;;;;;5021658;28;20557;-81
2023/02/09 06:48:54;;;;;;;26.67;15.52;;;;;;;;;;5020286;28;20092;-81
2023/02/09 06:51:21;;;;;;;29.50;16.65;;;;;;;;;;5018911;28;20057;-81
2023/02/09 06:53:48;;;;;;;26.63;16.25;;;;;;;;;;5016985;28;20140;-78
2023/02/09 06:56:14;;;;;;;26.73;16.30;;;;;;;;;;5031070;28;20514;-79
2023/02/09 06:58:41;;;;;;;25.50;15.60;;;;;;;;;;5014280;28;20059;-78
2023/02/09 07:01:10;;;;;;;30.65;17.00;;;;;;;;;;5014769;28;20053;-78
2023/02/09 07:03:37;;;;;;;27.70;17.08;;;;;;;;;;4998815;28;20059;-78
2023/02/09 07:06:12;;;;;;;28.20;16.77;;;;;;;;;;5030864;28;20076;-78
2023/02/09 07:08:39;;;;;;;29.15;17.60;;;;;;;;;;4998667;28;20053;-78
2023/02/09 07:11:08;;;;;;;29.50;17.40;;;;;;;;;;5030570;28;20425;-78
2023/02/09 07:13:35;;;;;;;28.88;16.77;;;;;;;;;;5031111;28;20060;-78
2023/02/09 07:16:04;;;;;;;31.05;17.73;;;;;;;;;;5001154;28;20056;-79
2023/02/09 07:18:31;;;;;;;29.58;16.70;;;;;;;;;;5035193;28;20045;-78
2023/02/09 07:20:59;;;;;;;30.80;17.40;;;;;;;;;;5002174;28;20451;-78
2023/02/09 07:23:26;;;;;;;32.97;17.70;;;;;;;;;;5002173;28;20517;-78
2023/02/09 07:25:53;;;;;;;28.33;16.42;;;;;;;;;;5034609;28;20486;-78
2023/02/09 07:28:20;;;;;;;31.38;15.70;;;;;;;;;;5034580;28;20067;-78
2023/02/09 07:30:48;;;;;;;26.30;16.13;;;;;;;;;;5034757;28;20136;-78
2023/02/09 07:33:15;;;;;;;29.10;16.02;;;;;;;;;;5002294;28;20061;-78
2023/02/09 07:35:42;;;;;;;30.63;16.27;;;;;;;;;;5034499;28;20053;-78
2023/02/09 07:38:09;;;;;;;29.98;17.50;;;;;;;;;;5019301;28;20597;-78
2023/02/09 07:40:37;;;;;;;31.80;16.50;;;;;;;;;;5035712;28;20053;-79
2023/02/09 07:43:04;;;;;;;28.15;15.55;;;;;;;;;;5034772;28;20053;-79
2023/02/09 07:45:32;;;;;;;29.45;16.10;;;;;;;;;;5003183;28;20416;-79
2023/02/09 07:47:58;;;;;;;31.20;16.65;;;;;;;;;;5018696;28;20064;-79
2023/02/09 07:50:25;;;;;;;30.73;17.30;;;;;;;;;;5018722;28;20139;-79
2023/02/09 07:52:53;;;;;;;32.60;17.08;;;;;;;;;;5035300;28;20053;-79
2023/02/09 07:55:20;;;;;;;32.65;17.30;;;;;;;;;;5019179;28;20065;-79
2023/02/09 07:57:47;;;;;;;34.15;18.40;;;;;;;;;;5019189;28;20053;-80
2023/02/09 08:00:14;;;;;;;32.88;17.77;;;;;;;;;;5002972;28;20064;-79
2023/02/09 08:02:42;;;;;;;42.17;18.17;;;;;;;;;;5004152;28;20068;-79
2023/02/09 08:05:55;;;;;;;30.98;18.38;;;;;;;;;;5019322;28;20076;-79
2023/02/09 08:08:21;;;;;;;31.70;18.70;;;;;;;;;;5020251;28;20058;-79
2023/02/09 08:10:48;;;;;;;34.00;18.70;;;;;;;;;;5003091;28;20612;-79
2023/02/09 08:13:15;;;;;;;36.50;20.13;;;;;;;;;;5004046;28;20073;-79
2023/02/09 08:15:44;;;;;;;31.08;19.10;;;;;;;;;;5018636;28;20512;-79
2023/02/09 08:18:23;;;;;;;36.40;20.00;;;;;;;;;;5003131;28;20057;-79
2023/02/09 08:20:49;;;;;;;34.15;19.27;;;;;;;;;;5004438;28;20417;-79
2023/02/09 08:23:27;;;;;;;34.58;20.25;;;;;;;;;;5004598;28;20057;-80
2023/02/09 08:25:54;;;;;;;34.65;19.63;;;;;;;;;;5033988;28;20097;-80
2023/02/09 08:28:21;;;;;;;36.53;20.35;;;;;;;;;;5013673;28;20049;-79
2023/02/09 08:31:03;;;;;;;35.35;20.48;;;;;;;;;;5040893;28;20421;-79
2023/02/09 08:33:30;;;;;;;36.58;20.75;;;;;;;;;;5036243;28;20053;-79
2023/02/09 08:35:57;;;;;;;37.50;22.20;;;;;;;;;;5034473;28;20049;-80
2023/02/09 08:38:24;;;;;;;40.15;21.50;;;;;;;;;;5001769;28;20061;-79
2023/02/09 08:40:50;;;;;;;34.45;20.92;;;;;;;;;;5001486;28;20064;-80
2023/02/09 08:43:17;;;;;;;34.45;19.23;;;;;;;;;;5017861;28;20053;-80
2023/02/09 08:45:44;;;;;;;38.38;20.63;;;;;;;;;;5002062;28;20065;-80
2023/02/09 08:48:11;;;;;;;35.10;19.80;;;;;;;;;;5034461;28;20377;-80
2023/02/09 08:50:38;;;;;;;32.58;20.35;;;;;;;;;;5002372;28;20395;-80
2023/02/09 08:53:05;;;;;;;36.30;21.00;;;;;;;;;;5001649;28;20056;-80
2023/02/09 08:55:33;;;;;;;33.17;19.42;;;;;;;;;;5018499;28;20060;-80
2023/02/09 08:58:00;;;;;;;35.03;20.50;;;;;;;;;;5007447;28;20092;-80
2023/02/09 09:00:27;;;;;;;31.80;19.77;;;;;;;;;;5026547;28;20045;-80
2023/02/09 09:02:53;;;;;;;35.03;20.50;;;;;;;;;;5006366;28;20108;-80
2023/02/09 09:05:20;;;;;;;40.17;20.30;;;;;;;;;;5019710;28;20071;-80
2023/02/09 09:07:47;;;;;;;36.33;20.98;;;;;;;;;;5035980;28;20057;-79
2023/02/09 09:10:14;;;;;;;34.95;21.88;;;;;;;;;;5036493;28;20060;-79
2023/02/09 09:12:40;;;;;;;37.08;21.25;;;;;;;;;;5019691;28;20053;-79
2023/02/09 09:15:08;;;;;;;39.03;21.58;;;;;;;;;;5052232;28;20045;-80
2023/02/09 09:17:34;;;;;;;35.40;20.15;;;;;;;;;;5019176;28;20064;-79
2023/02/09 09:20:01;;;;;;;35.65;21.80;;;;;;;;;;5018787;28;20056;-80
2023/02/09 09:22:28;;;;;;;37.45;21.17;;;;;;;;;;5035147;28;20080;-80
2023/02/09 09:24:55;;;;;;;34.15;19.05;;;;;;;;;;5038146;28;20049;-80
2023/02/09 09:27:21;;;;;;;32.93;19.80;;;;;;;;;;5106047;23;20572;-76
2023/02/09 09:29:51;;;;;;;35.22;19.42;;;;;;;;;;5069230;28;20056;-75
2023/02/09 09:32:23;;;;;;;34.42;20.38;;;;;;;;;;5086842;28;20064;-75
2023/02/09 09:34:57;;;;;;;28.95;16.48;;;;;;;;;;5048649;28;20079;-76
2023/02/09 09:37:25;;;;;;;35.97;20.27;;;;;;;;;;5056854;28;20088;-76
2023/02/09 09:39:52;;;;;;;31.17;19.38;;;;;;;;;;5039347;28;20391;-76
2023/02/09 09:42:36;;;;;;;36.08;19.70;;;;;;;;;;5037378;28;20109;-76
2023/02/09 09:45:04;;;;;;;36.53;20.92;;;;;;;;;;5039812;28;20441;-75
2023/02/09 09:47:41;;;;;;;37.90;21.40;;;;;;;;;;5038143;28;20052;-76
2023/02/09 09:50:23;;;;;;;38.75;19.83;;;;;;;;;;5036205;28;20092;-75
2023/02/09 09:52:58;;;;;;;36.33;20.85;;;;;;;;;;5038609;28;20045;-75
2023/02/09 09:55:27;;;;;;;35.72;19.33;;;;;;;;;;5041766;28;20048;-76
2023/02/09 09:57:57;;;;;;;37.67;22.08;;;;;;;;;;5040104;28;20059;-77
2023/02/09 10:00:31;;;;;;;41.05;23.75;;;;;;;;;;5035924;28;20429;-76
2023/02/09 10:02:58;;;;;;;40.65;23.23;;;;;;;;;;5036238;28;20107;-76
2023/02/09 10:05:31;;;;;;;37.10;22.00;;;;;;;;;;5051928;28;20045;-76
2023/02/09 10:08:09;;;;;;;41.83;22.92;;;;;;;;;;5019597;28;20053;-76
2023/02/09 10:10:45;;;;;;;36.63;23.42;;;;;;;;;;5037102;28;20057;-76
2023/02/09 10:13:22;;;;;;;39.35;23.02;;;;;;;;;;5068418;28;20049;-76
2023/02/09 10:15:54;;;;;;;37.22;22.98;;;;;;;;;;5035512;28;20051;-76
2023/02/09 10:18:24;;;;;;;38.15;23.38;;;;;;;;;;5035183;28;20307;-77
2023/02/09 10:20:52;;;;;;;39.20;23.50;;;;;;;;;;5035943;28;20102;-76
2023/02/09 10:23:37;;;;;;;37.83;23.25;;;;;;;;;;5051470;28;20049;-76
2023/02/09 10:26:07;;;;;;;38.88;24.52;;;;;;;;;;5034786;28;20053;-76
2023/02/09 10:28:39;;;;;;;40.10;23.38;;;;;;;;;;5069001;28;20513;-76
2023/02/09 10:31:18;;;;;;;36.75;23.00;;;;;;;;;;5051263;28;20084;-76
2023/02/09 10:33:45;;;;;;;39.70;22.75;;;;;;;;;;5067788;28;20096;-76
2023/02/09 10:36:27;;;;;;;39.55;24.10;;;;;;;;;;5034524;28;20485;-76
2023/02/09 10:39:24;;;;;;;40.33;23.63;;;;;;;;;;5034853;28;20056;-76
2023/02/09 10:41:53;;;;;;;38.60;23.60;;;;;;;;;;5050442;28;20053;-76
2023/02/09 10:44:29;;;;;;;36.58;22.70;;;;;;;;;;5034238;28;20053;-76
2023/02/09 10:47:19;;;;;;;43.58;23.77;;;;;;;;;;5034776;28;20482;-76
2023/02/09 10:49:53;;;;;;;41.33;23.95;;;;;;;;;;5041043;28;20525;-76
2023/02/09 10:52:24;;;;;;;34.53;22.60;;;;;;;;;;5035030;28;20049;-76
2023/02/09 10:54:55;;;;;;;34.60;22.60;;;;;;;;;;5034210;28;20059;-76
2023/02/09 10:57:27;;;;;;;37.50;22.08;;;;;;;;;;5034773;28;20064;-77
2023/02/09 11:00:15;;;;;;;35.47;22.15;;;;;;;;;;5034399;28;20053;-76
2023/02/09 11:02:49;;;;;;;40.72;23.65;;;;;;;;;;5052708;28;20052;-77
2023/02/09 11:05:19;;;;;;;37.70;22.77;;;;;;;;;;5050521;28;20061;-76
2023/02/09 11:07:49;;;;;;;35.38;22.00;;;;;;;;;;5066907;28;20056;-77
2023/02/09 11:10:18;;;;;;;37.42;22.77;;;;;;;;;;5050402;28;20060;-76
2023/02/09 11:12:45;;;;;;;38.10;22.63;;;;;;;;;;5034220;28;20493;-77
2023/02/09 11:15:13;;;;;;;35.60;21.80;;;;;;;;;;5033959;28;20057;-76
2023/02/09 11:17:49;;;;;;;36.15;21.33;;;;;;;;;;5033949;28;20079;-76
2023/02/09 11:20:25;;;;;;;39.25;22.17;;;;;;;;;;5034163;28;20053;-77
2023/02/09 11:23:14;;;;;;;35.13;21.73;;;;;;;;;;5050462;28;20060;-77
2023/02/09 11:25:55;;;;;;;37.60;23.13;;;;;;;;;;5033866;28;20497;-77
2023/02/09 11:28:52;;;;;;;34.08;21.55;;;;;;;;;;5050326;28;20131;-76
2023/02/09 11:31:43;;;;;;;35.30;19.52;;;;;;;;;;5066777;28;20088;-76
2023/02/09 11:34:32;;;;;;;35.40;21.70;;;;;;;;;;5066936;28;20144;-76
2023/02/09 11:37:39;;;;;;;33.38;21.30;;;;;;;;;;5050335;28;20044;-76
2023/02/09 11:40:23;;;;;;;32.03;20.77;;;;;;;;;;5052859;28;20051;-77
2023/02/09 11:43:05;;;;;;;33.50;20.80;;;;;;;;;;5033436;28;20444;-76
2023/02/09 11:45:37;;;;;;;37.28;21.67;;;;;;;;;;5066742;28;20049;-76
2023/02/09 11:48:11;;;;;;;31.90;21.45;;;;;;;;;;5033598;28;20053;-77
2023/02/09 11:50:56;;;;;;;;;;;;;;;;;;5034817;28;20099;-77
2023/02/09 11:53:37;;;;;;;29.40;19.48;;;;;;;;;;5051480;28;19921;-76
2023/02/09 11:56:10;;;;;;;32.72;20.30;;;;;;;;;;5050253;28;20045;-77
2023/02/09 11:58:45;;;;;;;36.30;20.55;;;;;;;;;;5034009;28;20053;-77
2023/02/09 12:01:31;;;;;;;33.35;19.65;;;;;;;;;;5051196;28;20554;-76
2023/02/09 12:04:10;;;;;;;33.88;19.33;;;;;;;;;;5070316;28;20132;-76
2023/02/09 12:06:45;;;;;;;32.80;20.20;;;;;;;;;;5070378;28;20045;-76
2023/02/09 12:09:20;;;;;;;31.38;18.80;;;;;;;;;;5036686;28;20136;-77
2023/02/09 12:12:07;;;;;;;29.63;18.55;;;;;;;;;;5053673;28;20045;-77
2023/02/09 12:14:42;;;;;;;35.10;20.63;;;;;;;;;;5043400;28;20425;-76
2023/02/09 12:17:32;;;;;;;30.90;20.20;;;;;;;;;;5036810;28;20049;-77
2023/02/09 12:20:00;;;;;;;34.58;19.58;;;;;;;;;;5055261;28;20048;-77
2023/02/09 12:22:33;;;;;;;35.63;19.67;;;;;;;;;;5037079;28;20076;-76
2023/02/09 12:25:19;;;;;;;32.90;19.27;;;;;;;;;;5054593;28;20053;-76
2023/02/09 12:28:07;;;;;;;29.25;18.13;;;;;;;;;;5069433;28;20144;-76
2023/02/09 12:30:41;;;;;;;30.33;18.77;;;;;;;;;;5069874;28;20045;-77
2023/02/09 12:33:18;;;;;;;28.48;17.95;;;;;;;;;;5069790;28;20424;-76
2023/02/09 12:36:09;;;;;;;34.92;18.77;;;;;;;;;;5052890;28;20048;-77
2023/02/09 12:39:00;;;;;;;30.15;18.88;;;;;;;;;;5054205;28;20504;-77
2023/02/09 12:41:54;;;;;;;29.17;18.52;;;;;;;;;;5037195;28;20044;-76
2023/02/09 12:44:21;;;;;;;28.27;17.00;;;;;;;;;;5033580;28;20053;-76
2023/02/09 12:46:52;;;;;;;34.03;19.65;;;;;;;;;;5069334;28;20057;-76
2023/02/09 12:49:28;;;;;;;29.00;18.63;;;;;;;;;;5036834;28;20737;-76
2023/02/09 12:51:58;;;;;;;30.38;18.58;;;;;;;;;;5069373;28;20069;-76
2023/02/09 12:54:49;;;;;;;29.92;18.65;;;;;;;;;;5069100;28;20465;-76
2023/02/09 12:57:15;;;;;;;30.38;19.17;;;;;;;;;;5069402;28;20055;-76
2023/02/09 12:59:49;;;;;;;28.10;17.85;;;;;;;;;;5069568;28;20106;-76
2023/02/09 13:02:28;;;;;;;28.45;18.35;;;;;;;;;;5069208;28;20103;-76
2023/02/09 13:05:14;;;;;;;26.92;18.33;;;;;;;;;;5069493;28;20080;-77
2023/02/09 13:07:52;;;;;;;27.92;18.38;;;;;;;;;;5052416;28;20056;-76
2023/02/09 13:10:24;;;;;;;26.83;16.92;;;;;;;;;;5052665;28;20057;-76
2023/02/09 13:13:11;;;;;;;26.77;18.23;;;;;;;;;;5035812;28;20421;-76
2023/02/09 13:15:50;;;;;;;28.92;17.48;;;;;;;;;;5046183;28;20078;-76
2023/02/09 13:18:35;;;;;;;28.13;17.67;;;;;;;;;;5068978;28;20057;-76
2023/02/09 13:21:23;;;;;;;28.88;18.42;;;;;;;;;;5053263;28;20111;-76
2023/02/09 13:24:09;;;;;;;30.45;20.40;;;;;;;;;;5068295;28;20421;-77
2023/02/09 13:26:58;;;;;;;27.75;19.20;;;;;;;;;;5036857;28;20045;-77
2023/02/09 13:29:29;;;;;;;28.20;17.30;;;;;;;;;;5045513;28;20056;-77
2023/02/09 13:32:14;;;;;;;30.77;18.65;;;;;;;;;;5035864;28;20128;-77
2023/02/09 13:35:06;;;;;;;28.58;18.42;;;;;;;;;;5068321;28;20512;-78
2023/02/09 13:37:42;;;;;;;26.88;17.95;;;;;;;;;;5054194;28;20589;-77
2023/02/09 13:40:14;;;;;;;28.08;17.63;;;;;;;;;;5052904;28;20501;-78
2023/02/09 13:42:52;;;;;;;32.45;19.00;;;;;;;;;;5034961;28;20045;-78
2023/02/09 13:45:19;;;;;;;30.02;18.25;;;;;;;;;;5052985;28;20055;-77
2023/02/09 13:47:46;;;;;;;31.02;19.98;;;;;;;;;;5048951;28;20095;-77
2023/02/09 13:50:15;;;;;;;33.33;18.35;;;;;;;;;;5070323;28;20092;-77
2023/02/09 13:52:42;;;;;;;35.50;19.80;;;;;;;;;;5055164;28;20109;-77
2023/02/09 13:55:13;;;;;;;30.95;19.25;;;;;;;;;;5067046;28;20053;-77
2023/02/09 13:57:42;;;;;;;28.15;18.38;;;;;;;;;;5053301;28;20467;-77
2023/02/09 14:00:25;;;;;;;31.30;19.13;;;;;;;;;;5037111;28;20417;-77
2023/02/09 14:02:55;;;;;;;31.85;19.83;;;;;;;;;;5053133;28;20049;-77
2023/02/09 14:05:30;;;;;;;30.05;18.40;;;;;;;;;;5036357;28;20045;-78
2023/02/09 14:07:57;;;;;;;31.05;20.15;;;;;;;;;;5053072;28;20120;-77
2023/02/09 14:10:24;;;;;;;28.50;17.55;;;;;;;;;;5051658;28;20416;-77
2023/02/09 14:12:59;;;;;;;32.35;19.92;;;;;;;;;;5034997;28;20057;-77
2023/02/09 14:18:29;;;;;;;29.48;18.42;;;;;;;;;;5052358;28;20452;-77
2023/02/09 14:21:12;;;;;;;26.33;17.15;;;;;;;;;;5051251;28;20061;-77
2023/02/09 14:23:46;;;;;;;31.08;17.80;;;;;;;;;;5037816;28;20049;-76
2023/02/09 14:26:12;;;;;;;38.55;21.30;;;;;;;;;;5037719;28;20501;-78
2023/02/09 14:28:44;;;;;;;29.42;17.92;;;;;;;;;;5052133;28;20052;-77
2023/02/09 14:31:19;;;;;;;30.80;18.50;;;;;;;;;;5035618;28;20617;-77
2023/02/09 14:33:48;;;;;;;31.00;19.10;;;;;;;;;;5034558;28;20044;-77
2023/02/09 14:36:24;;;;;;;29.77;18.17;;;;;;;;;;5034437;28;20493;-78
2023/02/09 14:38:50;;;;;;;28.70;17.98;;;;;;;;;;5034489;28;20485;-77
2023/02/09 14:41:27;;;;;;;29.98;19.08;;;;;;;;;;5034184;28;20425;-77
2023/02/09 14:44:06;;;;;;;30.25;18.75;;;;;;;;;;5034814;28;20048;-77
2023/02/09 14:46:48;;;;;;;34.00;20.02;;;;;;;;;;5067391;28;20041;-77
2023/02/09 14:49:15;;;;;;;30.05;18.67;;;;;;;;;;5034327;28;20110;-77
2023/02/09 14:51:42;;;;;;;38.33;18.63;;;;;;;;;;5034648;28;20077;-77